sensor_id;sensor_type;location;lat;lon;timestamp;pressure;altitude;pressure_sealevel;temperature
53412;BMP280;39307;52.870;13.660;2023-07-29T00:00:53;100202.72;;;17.60
53412;BMP280;39307;52.870;13.660;2023-07-29T00:06:21;100198.22;;;17.61
53412;BMP280;39307;52.870;13.660;2023-07-29T00:08:59;100192.13;;;17.60
53412;BMP280;39307;52.870;13.660;2023-07-29T00:11:26;100193.50;;;17.63
53412;BMP280;39307;52.870;13.660;2023-07-29T00:13:52;100190.59;;;17.64
53412;BMP280;39307;52.870;13.660;2023-07-29T00:16:24;100183.47;;;17.64
53412;BMP280;39307;52.870;13.660;2023-07-29T00:18:58;100190.38;;;17.65
53412;BMP280;39307;52.870;13.660;2023-07-29T00:21:27;100187.16;;;17.63
53412;BMP280;39307;52.870;13.660;2023-07-29T00:23:57;100190.59;;;17.64
53412;BMP280;39307;52.870;13.660;2023-07-29T00:26:32;100199.34;;;17.64
53412;BMP280;39307;52.870;13.660;2023-07-29T00:28:58;100181.88;;;17.63
53412;BMP280;39307;52.870;13.660;2023-07-29T00:31:28;100178.69;;;17.62
53412;BMP280;39307;52.870;13.660;2023-07-29T00:36:33;100172.72;;;17.55
53412;BMP280;39307;52.870;13.660;2023-07-29T00:39:21;100176.91;;;17.51
53412;BMP280;39307;52.870;13.660;2023-07-29T00:41:52;100182.97;;;17.51
53412;BMP280;39307;52.870;13.660;2023-07-29T00:44:22;100176.91;;;17.51
53412;BMP280;39307;52.870;13.660;2023-07-29T00:47:03;100172.66;;;17.50
53412;BMP280;39307;52.870;13.660;2023-07-29T00:49:30;100164.88;;;17.43
53412;BMP280;39307;52.870;13.660;2023-07-29T00:52:42;100173.63;;;17.44
53412;BMP280;39307;52.870;13.660;2023-07-29T00:55:09;100178.09;;;17.43
53412;BMP280;39307;52.870;13.660;2023-07-29T00:57:39;100164.06;;;17.43
53412;BMP280;39307;52.870;13.660;2023-07-29T01:00:20;100165.56;;;17.39
53412;BMP280;39307;52.870;13.660;2023-07-29T01:02:58;100169.44;;;17.32
53412;BMP280;39307;52.870;13.660;2023-07-29T01:05:32;100169.44;;;17.32
53412;BMP280;39307;52.870;13.660;2023-07-29T01:08:46;100170.69;;;17.29
53412;BMP280;39307;52.870;13.660;2023-07-29T01:17:39;100149.38;;;17.19
53412;BMP280;39307;52.870;13.660;2023-07-29T01:20:24;100154.31;;;17.16
53412;BMP280;39307;52.870;13.660;2023-07-29T01:22:55;100154.47;;;17.09
53412;BMP280;39307;52.870;13.660;2023-07-29T01:25:31;100156.41;;;17.03
53412;BMP280;39307;52.870;13.660;2023-07-29T01:28:10;100156.91;;;17.00
53412;BMP280;39307;52.870;13.660;2023-07-29T01:36:38;100159.13;;;16.91
53412;BMP280;39307;52.870;13.660;2023-07-29T01:39:34;100150.84;;;16.88
53412;BMP280;39307;52.870;13.660;2023-07-29T01:42:19;100155.91;;;16.89
53412;BMP280;39307;52.870;13.660;2023-07-29T01:45:14;100154.06;;;16.90
53412;BMP280;39307;52.870;13.660;2023-07-29T01:48:04;100150.06;;;16.87
53412;BMP280;39307;52.870;13.660;2023-07-29T01:50:45;100159.84;;;16.87
53412;BMP280;39307;52.870;13.660;2023-07-29T01:53:50;100164.00;;;16.83
53412;BMP280;39307;52.870;13.660;2023-07-29T01:56:27;100162.50;;;16.75
53412;BMP280;39307;52.870;13.660;2023-07-29T01:59:21;100167.22;;;16.74
53412;BMP280;39307;52.870;13.660;2023-07-29T02:01:51;100175.50;;;16.77
53412;BMP280;39307;52.870;13.660;2023-07-29T02:04:31;100172.88;;;16.77
53412;BMP280;39307;52.870;13.660;2023-07-29T02:07:01;100165.63;;;16.73
53412;BMP280;39307;52.870;13.660;2023-07-29T02:09:36;100166.34;;;16.68
53412;BMP280;39307;52.870;13.660;2023-07-29T02:12:08;100169.19;;;16.67
53412;BMP280;39307;52.870;13.660;2023-07-29T02:15:04;100168.88;;;16.63
53412;BMP280;39307;52.870;13.660;2023-07-29T02:20:55;100167.41;;;16.56
53412;BMP280;39307;52.870;13.660;2023-07-29T02:24:14;100160.28;;;16.56
53412;BMP280;39307;52.870;13.660;2023-07-29T02:27:09;100159.22;;;16.57
53412;BMP280;39307;52.870;13.660;2023-07-29T02:29:17;100150.50;;;16.57
53412;BMP280;39307;52.870;13.660;2023-07-29T02:37:51;100160.16;;;16.63
53412;BMP280;39307;52.870;13.660;2023-07-29T02:40:32;100159.91;;;16.64
53412;BMP280;39307;52.870;13.660;2023-07-29T02:43:21;100159.44;;;16.67
53412;BMP280;39307;52.870;13.660;2023-07-29T02:45:56;100158.16;;;16.70
53412;BMP280;39307;52.870;13.660;2023-07-29T02:48:38;100141.84;;;16.73
53412;BMP280;39307;52.870;13.660;2023-07-29T02:54:15;100156.66;;;16.74
53412;BMP280;39307;52.870;13.660;2023-07-29T02:56:53;100164.03;;;16.72
53412;BMP280;39307;52.870;13.660;2023-07-29T03:02:39;100163.63;;;16.79
53412;BMP280;39307;52.870;13.660;2023-07-29T03:05:47;100170.53;;;16.80
53412;BMP280;39307;52.870;13.660;2023-07-29T03:08:34;100170.75;;;16.79
53412;BMP280;39307;52.870;13.660;2023-07-29T03:11:19;100177.91;;;16.78
53412;BMP280;39307;52.870;13.660;2023-07-29T03:13:51;100173.41;;;16.79
53412;BMP280;39307;52.870;13.660;2023-07-29T03:16:30;100172.41;;;16.80
53412;BMP280;39307;52.870;13.660;2023-07-29T03:19:02;100165.00;;;16.82
53412;BMP280;39307;52.870;13.660;2023-07-29T03:21:49;100161.69;;;16.86
53412;BMP280;39307;52.870;13.660;2023-07-29T03:24:27;100166.38;;;16.84
53412;BMP280;39307;52.870;13.660;2023-07-29T03:27:05;100164.78;;;16.83
53412;BMP280;39307;52.870;13.660;2023-07-29T03:29:37;100166.63;;;16.83
53412;BMP280;39307;52.870;13.660;2023-07-29T03:32:15;100162.38;;;16.82
53412;BMP280;39307;52.870;13.660;2023-07-29T03:35:32;100167.66;;;16.82
53412;BMP280;39307;52.870;13.660;2023-07-29T03:38:12;100158.94;;;16.81
53412;BMP280;39307;52.870;13.660;2023-07-29T03:41:22;100167.91;;;16.80
53412;BMP280;39307;52.870;13.660;2023-07-29T03:44:04;100161.56;;;16.81
53412;BMP280;39307;52.870;13.660;2023-07-29T03:46:32;100161.69;;;16.86
53412;BMP280;39307;52.870;13.660;2023-07-29T03:49:01;100154.28;;;16.88
53412;BMP280;39307;52.870;13.660;2023-07-29T03:51:31;100147.19;;;16.89
53412;BMP280;39307;52.870;13.660;2023-07-29T03:54:09;100155.81;;;16.84
53412;BMP280;39307;52.870;13.660;2023-07-29T03:56:54;100144.78;;;16.87
53412;BMP280;39307;52.870;13.660;2023-07-29T04:07:49;100173.13;;;16.92
53412;BMP280;39307;52.870;13.660;2023-07-29T04:10:27;100171.06;;;16.94
53412;BMP280;39307;52.870;13.660;2023-07-29T04:12:59;100172.34;;;16.91
53412;BMP280;39307;52.870;13.660;2023-07-29T04:18:36;100163.13;;;16.94
53412;BMP280;39307;52.870;13.660;2023-07-29T04:21:03;100168.09;;;16.90
53412;BMP280;39307;52.870;13.660;2023-07-29T04:23:29;100154.63;;;16.92
53412;BMP280;39307;52.870;13.660;2023-07-29T04:26:00;100160.81;;;16.97
53412;BMP280;39307;52.870;13.660;2023-07-29T04:29:30;100164.81;;;17.00
53412;BMP280;39307;52.870;13.660;2023-07-29T04:31:40;100161.72;;;17.03
53412;BMP280;39307;52.870;13.660;2023-07-29T04:36:48;100172.06;;;17.04
53412;BMP280;39307;52.870;13.660;2023-07-29T04:39:48;100177.34;;;17.04
53412;BMP280;39307;52.870;13.660;2023-07-29T04:42:23;100179.75;;;17.05
53412;BMP280;39307;52.870;13.660;2023-07-29T04:45:35;100174.72;;;17.04
53412;BMP280;39307;52.870;13.660;2023-07-29T04:48:05;100169.66;;;17.03
53412;BMP280;39307;52.870;13.660;2023-07-29T04:50:43;100166.66;;;17.10
53412;BMP280;39307;52.870;13.660;2023-07-29T04:53:40;100160.53;;;17.10
53412;BMP280;39307;52.870;13.660;2023-07-29T04:56:09;100167.00;;;17.14
53412;BMP280;39307;52.870;13.660;2023-07-29T04:58:49;100170.44;;;17.14
53412;BMP280;39307;52.870;13.660;2023-07-29T05:01:28;100163.53;;;17.13
53412;BMP280;39307;52.870;13.660;2023-07-29T05:04:00;100160.06;;;17.13
53412;BMP280;39307;52.870;13.660;2023-07-29T05:06:29;100171.13;;;17.10
53412;BMP280;39307;52.870;13.660;2023-07-29T05:12:17;100157.44;;;17.13
53412;BMP280;39307;52.870;13.660;2023-07-29T05:14:43;100154.78;;;17.13
53412;BMP280;39307;52.870;13.660;2023-07-29T05:17:35;100151.66;;;17.16
53412;BMP280;39307;52.870;13.660;2023-07-29T05:20:02;100151.75;;;17.21
53412;BMP280;39307;52.870;13.660;2023-07-29T05:22:31;100149.22;;;17.26
53412;BMP280;39307;52.870;13.660;2023-07-29T05:25:28;100150.56;;;17.28
53412;BMP280;39307;52.870;13.660;2023-07-29T05:27:58;100136.84;;;17.31
53412;BMP280;39307;52.870;13.660;2023-07-29T05:30:31;100137.22;;;17.34
53412;BMP280;39307;52.870;13.660;2023-07-29T05:33:13;100137.84;;;17.41
53412;BMP280;39307;52.870;13.660;2023-07-29T05:35:51;100133.66;;;17.45
53412;BMP280;39307;52.870;13.660;2023-07-29T05:38:22;100132.72;;;17.51
53412;BMP280;39307;52.870;13.660;2023-07-29T05:40:51;100138.63;;;17.58
53412;BMP280;39307;52.870;13.660;2023-07-29T05:43:27;100128.72;;;17.65
53412;BMP280;39307;52.870;13.660;2023-07-29T05:45:53;100138.34;;;17.71
53412;BMP280;39307;52.870;13.660;2023-07-29T05:49:02;100141.53;;;17.73
53412;BMP280;39307;52.870;13.660;2023-07-29T05:51:32;100128.38;;;17.78
53412;BMP280;39307;52.870;13.660;2023-07-29T05:54:04;100132.13;;;17.82
53412;BMP280;39307;52.870;13.660;2023-07-29T05:56:48;100128.19;;;17.84
53412;BMP280;39307;52.870;13.660;2023-07-29T05:59:22;100121.13;;;17.90
53412;BMP280;39307;52.870;13.660;2023-07-29T06:02:06;100118.53;;;17.94
53412;BMP280;39307;52.870;13.660;2023-07-29T06:04:37;100116.56;;;18.01
53412;BMP280;39307;52.870;13.660;2023-07-29T06:07:30;100119.28;;;18.06
53412;BMP280;39307;52.870;13.660;2023-07-29T06:09:52;100119.34;;;18.11
53412;BMP280;39307;52.870;13.660;2023-07-29T06:12:25;100114.34;;;18.15
53412;BMP280;39307;52.870;13.660;2023-07-29T06:14:54;100112.59;;;18.20
53412;BMP280;39307;52.870;13.660;2023-07-29T06:17:23;100114.78;;;18.28
53412;BMP280;39307;52.870;13.660;2023-07-29T06:19:54;100107.66;;;18.28
53412;BMP280;39307;52.870;13.660;2023-07-29T06:22:39;100096.63;;;18.36
53412;BMP280;39307;52.870;13.660;2023-07-29T06:28:00;100095.75;;;18.52
53412;BMP280;39307;52.870;13.660;2023-07-29T06:30:26;100097.66;;;18.56
53412;BMP280;39307;52.870;13.660;2023-07-29T06:32:53;100095.56;;;18.58
53412;BMP280;39307;52.870;13.660;2023-07-29T06:35:19;100095.06;;;18.61
53412;BMP280;39307;52.870;13.660;2023-07-29T06:37:51;100094.13;;;18.72
53412;BMP280;39307;52.870;13.660;2023-07-29T06:40:22;100087.97;;;18.67
53412;BMP280;39307;52.870;13.660;2023-07-29T06:43:19;100097.00;;;18.71
53412;BMP280;39307;52.870;13.660;2023-07-29T06:46:06;100092.28;;;18.73
53412;BMP280;39307;52.870;13.660;2023-07-29T06:48:36;100096.63;;;18.83
53412;BMP280;39307;52.870;13.660;2023-07-29T06:51:02;100093.22;;;18.88
53412;BMP280;39307;52.870;13.660;2023-07-29T06:53:28;100090.56;;;18.88
53412;BMP280;39307;52.870;13.660;2023-07-29T06:58:49;100096.50;;;18.95
53412;BMP280;39307;52.870;13.660;2023-07-29T07:01:19;100089.16;;;19.02
53412;BMP280;39307;52.870;13.660;2023-07-29T07:03:51;100084.44;;;19.08
53412;BMP280;39307;52.870;13.660;2023-07-29T07:06:32;100083.00;;;19.22
53412;BMP280;39307;52.870;13.660;2023-07-29T07:09:07;100081.75;;;19.35
53412;BMP280;39307;52.870;13.660;2023-07-29T07:12:01;100074.09;;;19.43
53412;BMP280;39307;52.870;13.660;2023-07-29T07:14:33;100076.81;;;19.48
53412;BMP280;39307;52.870;13.660;2023-07-29T07:17:09;100073.19;;;19.59
53412;BMP280;39307;52.870;13.660;2023-07-29T07:19:42;100070.81;;;19.67
53412;BMP280;39307;52.870;13.660;2023-07-29T07:22:17;100077.06;;;19.77
53412;BMP280;39307;52.870;13.660;2023-07-29T07:24:55;100069.13;;;19.87
53412;BMP280;39307;52.870;13.660;2023-07-29T07:27:39;100074.81;;;20.05
53412;BMP280;39307;52.870;13.660;2023-07-29T07:30:17;100075.72;;;20.25
53412;BMP280;39307;52.870;13.660;2023-07-29T07:33:00;100074.69;;;20.41
53412;BMP280;39307;52.870;13.660;2023-07-29T07:35:44;100081.38;;;20.49
53412;BMP280;39307;52.870;13.660;2023-07-29T07:38:14;100078.81;;;20.68
53412;BMP280;39307;52.870;13.660;2023-07-29T07:40:55;100071.63;;;20.79
53412;BMP280;39307;52.870;13.660;2023-07-29T07:43:24;100067.94;;;20.89
53412;BMP280;39307;52.870;13.660;2023-07-29T07:45:51;100071.94;;;21.02
53412;BMP280;39307;52.870;13.660;2023-07-29T07:48:23;100060.78;;;21.14
53412;BMP280;39307;52.870;13.660;2023-07-29T07:50:53;100055.69;;;21.28
53412;BMP280;39307;52.870;13.660;2023-07-29T07:53:19;100054.13;;;21.37
53412;BMP280;39307;52.870;13.660;2023-07-29T07:55:46;100048.00;;;21.46
53412;BMP280;39307;52.870;13.660;2023-07-29T07:58:12;100057.31;;;21.58
53412;BMP280;39307;52.870;13.660;2023-07-29T08:00:38;100059.44;;;21.66
53412;BMP280;39307;52.870;13.660;2023-07-29T08:03:04;100057.81;;;21.70
53412;BMP280;39307;52.870;13.660;2023-07-29T08:05:30;100040.78;;;21.71
53412;BMP280;39307;52.870;13.660;2023-07-29T08:07:56;100042.09;;;21.73
53412;BMP280;39307;52.870;13.660;2023-07-29T08:10:23;100047.41;;;21.78
53412;BMP280;39307;52.870;13.660;2023-07-29T08:12:52;100045.78;;;21.87
53412;BMP280;39307;52.870;13.660;2023-07-29T08:15:18;100038.84;;;21.91
53412;BMP280;39307;52.870;13.660;2023-07-29T08:17:46;100044.44;;;21.99
53412;BMP280;39307;52.870;13.660;2023-07-29T08:20:12;100041.25;;;22.07
53412;BMP280;39307;52.870;13.660;2023-07-29T08:22:38;100031.56;;;22.26
53412;BMP280;39307;52.870;13.660;2023-07-29T08:25:04;100027.91;;;22.55
53412;BMP280;39307;52.870;13.660;2023-07-29T08:27:32;100027.53;;;22.81
53412;BMP280;39307;52.870;13.660;2023-07-29T08:29:59;100031.03;;;23.10
53412;BMP280;39307;52.870;13.660;2023-07-29T08:32:25;100016.44;;;23.30
53412;BMP280;39307;52.870;13.660;2023-07-29T08:34:58;100014.00;;;23.62
53412;BMP280;39307;52.870;13.660;2023-07-29T08:37:27;100009.66;;;23.94
53412;BMP280;39307;52.870;13.660;2023-07-29T08:39:54;100008.91;;;24.11
53412;BMP280;39307;52.870;13.660;2023-07-29T08:42:21;100010.63;;;24.26
53412;BMP280;39307;52.870;13.660;2023-07-29T08:44:49;100020.75;;;24.47
53412;BMP280;39307;52.870;13.660;2023-07-29T08:47:18;100022.19;;;24.58
53412;BMP280;39307;52.870;13.660;2023-07-29T08:49:49;100008.56;;;24.59
53412;BMP280;39307;52.870;13.660;2023-07-29T08:52:20;100013.75;;;24.69
53412;BMP280;39307;52.870;13.660;2023-07-29T08:54:46;100012.81;;;24.96
53412;BMP280;39307;52.870;13.660;2023-07-29T08:57:13;100008.88;;;25.07
53412;BMP280;39307;52.870;13.660;2023-07-29T08:59:42;100011.84;;;25.06
53412;BMP280;39307;52.870;13.660;2023-07-29T09:02:09;100011.06;;;25.05
53412;BMP280;39307;52.870;13.660;2023-07-29T09:04:35;100014.91;;;24.99
53412;BMP280;39307;52.870;13.660;2023-07-29T09:07:03;100025.69;;;24.94
53412;BMP280;39307;52.870;13.660;2023-07-29T09:09:30;100011.50;;;24.94
53412;BMP280;39307;52.870;13.660;2023-07-29T09:14:44;100006.00;;;24.86
53412;BMP280;39307;52.870;13.660;2023-07-29T09:17:11;100004.47;;;24.98
53412;BMP280;39307;52.870;13.660;2023-07-29T09:19:48;99992.59;;;25.04
53412;BMP280;39307;52.870;13.660;2023-07-29T09:22:21;99994.69;;;25.07
53412;BMP280;39307;52.870;13.660;2023-07-29T09:24:57;99991.72;;;25.08
53412;BMP280;39307;52.870;13.660;2023-07-29T09:27:38;99986.28;;;25.13
53412;BMP280;39307;52.870;13.660;2023-07-29T09:30:05;99989.84;;;25.09
53412;BMP280;39307;52.870;13.660;2023-07-29T09:32:34;99993.69;;;25.03
53412;BMP280;39307;52.870;13.660;2023-07-29T09:35:11;99982.72;;;24.86
53412;BMP280;39307;52.870;13.660;2023-07-29T09:37:38;99979.81;;;24.83
53412;BMP280;39307;52.870;13.660;2023-07-29T09:40:06;99974.69;;;24.86
53412;BMP280;39307;52.870;13.660;2023-07-29T09:42:33;99981.44;;;24.84
53412;BMP280;39307;52.870;13.660;2023-07-29T09:45:00;99973.69;;;24.82
53412;BMP280;39307;52.870;13.660;2023-07-29T09:47:26;99970.25;;;24.77
53412;BMP280;39307;52.870;13.660;2023-07-29T09:49:53;99966.50;;;24.78
53412;BMP280;39307;52.870;13.660;2023-07-29T09:52:21;99969.25;;;24.73
53412;BMP280;39307;52.870;13.660;2023-07-29T09:54:48;99969.41;;;24.81
53412;BMP280;39307;52.870;13.660;2023-07-29T09:57:17;99958.41;;;24.83
53412;BMP280;39307;52.870;13.660;2023-07-29T09:59:55;99951.16;;;24.83
53412;BMP280;39307;52.870;13.660;2023-07-29T10:02:22;99951.75;;;24.80
53412;BMP280;39307;52.870;13.660;2023-07-29T10:04:49;99956.66;;;24.73
53412;BMP280;39307;52.870;13.660;2023-07-29T10:07:16;99954.28;;;24.72
53412;BMP280;39307;52.870;13.660;2023-07-29T10:09:45;99956.97;;;24.72
53412;BMP280;39307;52.870;13.660;2023-07-29T10:12:11;99954.56;;;24.70
53412;BMP280;39307;52.870;13.660;2023-07-29T10:14:39;99959.72;;;24.67
53412;BMP280;39307;52.870;13.660;2023-07-29T10:17:06;99957.13;;;24.62
53412;BMP280;39307;52.870;13.660;2023-07-29T10:19:32;99949.16;;;24.57
53412;BMP280;39307;52.870;13.660;2023-07-29T10:22:00;99938.53;;;24.52
53412;BMP280;39307;52.870;13.660;2023-07-29T10:24:32;99942.25;;;24.56
53412;BMP280;39307;52.870;13.660;2023-07-29T10:27:00;99933.53;;;24.64
53412;BMP280;39307;52.870;13.660;2023-07-29T10:29:38;99925.63;;;24.72
53412;BMP280;39307;52.870;13.660;2023-07-29T10:32:05;99927.22;;;24.73
53412;BMP280;39307;52.870;13.660;2023-07-29T10:34:32;99920.28;;;24.72
53412;BMP280;39307;52.870;13.660;2023-07-29T10:36:59;99927.22;;;24.73
53412;BMP280;39307;52.870;13.660;2023-07-29T10:39:25;99919.97;;;24.74
53412;BMP280;39307;52.870;13.660;2023-07-29T10:41:59;99923.75;;;24.73
53412;BMP280;39307;52.870;13.660;2023-07-29T10:47:27;99926.28;;;24.64
53412;BMP280;39307;52.870;13.660;2023-07-29T10:49:55;99927.06;;;24.65
53412;BMP280;39307;52.870;13.660;2023-07-29T10:52:51;99915.38;;;24.61
53412;BMP280;39307;52.870;13.660;2023-07-29T10:57:51;99925.16;;;24.52
53412;BMP280;39307;52.870;13.660;2023-07-29T11:00:20;99919.91;;;24.47
53412;BMP280;39307;52.870;13.660;2023-07-29T11:03:00;99915.41;;;24.43
53412;BMP280;39307;52.870;13.660;2023-07-29T11:05:27;99910.34;;;24.41
53412;BMP280;39307;52.870;13.660;2023-07-29T11:08:27;99910.63;;;24.40
53412;BMP280;39307;52.870;13.660;2023-07-29T11:11:03;99910.72;;;24.35
53412;BMP280;39307;52.870;13.660;2023-07-29T11:13:30;99908.91;;;24.31
53412;BMP280;39307;52.870;13.660;2023-07-29T11:15:58;99905.03;;;24.23
53412;BMP280;39307;52.870;13.660;2023-07-29T11:18:32;99912.84;;;24.15
53412;BMP280;39307;52.870;13.660;2023-07-29T11:20:59;99903.38;;;24.04
53412;BMP280;39307;52.870;13.660;2023-07-29T11:23:33;99915.78;;;23.95
53412;BMP280;39307;52.870;13.660;2023-07-29T11:26:00;99923.69;;;23.87
53412;BMP280;39307;52.870;13.660;2023-07-29T11:28:27;99936.34;;;23.76
53412;BMP280;39307;52.870;13.660;2023-07-29T11:30:57;99941.03;;;23.66
53412;BMP280;39307;52.870;13.660;2023-07-29T11:33:25;99934.78;;;23.52
53412;BMP280;39307;52.870;13.660;2023-07-29T11:35:55;99923.94;;;23.39
53412;BMP280;39307;52.870;13.660;2023-07-29T11:38:22;99922.75;;;23.27
53412;BMP280;39307;52.870;13.660;2023-07-29T11:41:03;99929.03;;;23.13
53412;BMP280;39307;52.870;13.660;2023-07-29T11:43:36;99933.44;;;22.99
53412;BMP280;39307;52.870;13.660;2023-07-29T11:49:08;99951.75;;;22.77
53412;BMP280;39307;52.870;13.660;2023-07-29T11:51:35;99944.66;;;22.63
53412;BMP280;39307;52.870;13.660;2023-07-29T11:54:03;99958.06;;;22.53
53412;BMP280;39307;52.870;13.660;2023-07-29T11:56:34;99960.28;;;22.41
53412;BMP280;39307;52.870;13.660;2023-07-29T11:59:23;99960.84;;;22.33
53412;BMP280;39307;52.870;13.660;2023-07-29T12:01:50;99952.63;;;22.25
53412;BMP280;39307;52.870;13.660;2023-07-29T12:04:27;99949.22;;;22.20
53412;BMP280;39307;52.870;13.660;2023-07-29T12:09:50;99933.84;;;21.97
53412;BMP280;39307;52.870;13.660;2023-07-29T12:12:25;99929.34;;;21.88
53412;BMP280;39307;52.870;13.660;2023-07-29T12:15:02;99924.56;;;21.85
53412;BMP280;39307;52.870;13.660;2023-07-29T12:17:31;99917.13;;;21.77
53412;BMP280;39307;52.870;13.660;2023-07-29T12:20:11;99910.28;;;21.71
53412;BMP280;39307;52.870;13.660;2023-07-29T12:22:38;99916.13;;;21.68
53412;BMP280;39307;52.870;13.660;2023-07-29T12:25:13;99914.28;;;21.69
53412;BMP280;39307;52.870;13.660;2023-07-29T12:30:56;99918.56;;;21.60
53412;BMP280;39307;52.870;13.660;2023-07-29T12:33:59;99920.97;;;21.56
53412;BMP280;39307;52.870;13.660;2023-07-29T12:36:54;99934.25;;;21.61
53412;BMP280;39307;52.870;13.660;2023-07-29T12:39:50;99941.16;;;21.67
53412;BMP280;39307;52.870;13.660;2023-07-29T12:42:28;99944.34;;;21.69
53412;BMP280;39307;52.870;13.660;2023-07-29T12:44:55;99936.91;;;21.71
53412;BMP280;39307;52.870;13.660;2023-07-29T12:47:22;99927.59;;;21.69
53412;BMP280;39307;52.870;13.660;2023-07-29T12:50:03;99917.72;;;21.69
53412;BMP280;39307;52.870;13.660;2023-07-29T12:52:42;99919.84;;;21.72
53412;BMP280;39307;52.870;13.660;2023-07-29T12:55:08;99921.66;;;21.81
53412;BMP280;39307;52.870;13.660;2023-07-29T12:57:35;99932.56;;;21.80
53412;BMP280;39307;52.870;13.660;2023-07-29T13:00:08;99923.53;;;21.81
53412;BMP280;39307;52.870;13.660;2023-07-29T13:02:45;99926.69;;;21.83
53412;BMP280;39307;52.870;13.660;2023-07-29T13:05:12;99922.69;;;21.85
53412;BMP280;39307;52.870;13.660;2023-07-29T13:07:42;99923.78;;;21.89
53412;BMP280;39307;52.870;13.660;2023-07-29T13:10:09;99931.75;;;21.89
53412;BMP280;39307;52.870;13.660;2023-07-29T13:12:36;99932.56;;;21.90
53412;BMP280;39307;52.870;13.660;2023-07-29T13:15:03;99924.03;;;21.88
53412;BMP280;39307;52.870;13.660;2023-07-29T13:17:33;99929.66;;;21.86
53412;BMP280;39307;52.870;13.660;2023-07-29T13:20:02;99928.31;;;21.84
53412;BMP280;39307;52.870;13.660;2023-07-29T13:22:38;99942.69;;;21.83
53412;BMP280;39307;52.870;13.660;2023-07-29T13:25:10;99944.31;;;21.84
53412;BMP280;39307;52.870;13.660;2023-07-29T13:27:44;99945.91;;;21.80
53412;BMP280;39307;52.870;13.660;2023-07-29T13:30:13;99942.72;;;21.78
53412;BMP280;39307;52.870;13.660;2023-07-29T13:32:49;99941.66;;;21.79
53412;BMP280;39307;52.870;13.660;2023-07-29T13:38:05;99945.09;;;21.84
53412;BMP280;39307;52.870;13.660;2023-07-29T13:40:50;99942.41;;;21.89
53412;BMP280;39307;52.870;13.660;2023-07-29T13:43:16;99946.06;;;21.98
53412;BMP280;39307;52.870;13.660;2023-07-29T13:45:43;99952.75;;;22.10
53412;BMP280;39307;52.870;13.660;2023-07-29T14:01:03;99935.19;;;22.47
53412;BMP280;39307;52.870;13.660;2023-07-29T14:16:14;99896.56;;;23.01
53412;BMP280;39307;52.870;13.660;2023-07-29T14:18:55;99901.56;;;23.07
53412;BMP280;39307;52.870;13.660;2023-07-29T14:21:33;99906.09;;;23.12
53412;BMP280;39307;52.870;13.660;2023-07-29T14:26:53;99891.03;;;23.20
53412;BMP280;39307;52.870;13.660;2023-07-29T14:29:43;99895.53;;;23.25
53412;BMP280;39307;52.870;13.660;2023-07-29T14:32:12;99886.38;;;23.31
53412;BMP280;39307;52.870;13.660;2023-07-29T14:34:39;99888.13;;;23.40
53412;BMP280;39307;52.870;13.660;2023-07-29T14:37:14;99876.88;;;23.48
53412;BMP280;39307;52.870;13.660;2023-07-29T14:39:43;99869.50;;;23.58
53412;BMP280;39307;52.870;13.660;2023-07-29T14:42:12;99879.00;;;23.69
53412;BMP280;39307;52.870;13.660;2023-07-29T14:44:47;99881.09;;;23.72
53412;BMP280;39307;52.870;13.660;2023-07-29T14:47:17;99871.38;;;23.81
53412;BMP280;39307;52.870;13.660;2023-07-29T14:49:47;99875.34;;;23.83
53412;BMP280;39307;52.870;13.660;2023-07-29T14:52:26;99882.22;;;23.89
53412;BMP280;39307;52.870;13.660;2023-07-29T14:54:55;99880.03;;;23.91
53412;BMP280;39307;52.870;13.660;2023-07-29T14:57:25;99873.59;;;23.92
53412;BMP280;39307;52.870;13.660;2023-07-29T15:00:00;99881.56;;;23.97
53412;BMP280;39307;52.870;13.660;2023-07-29T15:02:27;99877.22;;;24.01
53412;BMP280;39307;52.870;13.660;2023-07-29T15:05:22;99888.22;;;24.00
53412;BMP280;39307;52.870;13.660;2023-07-29T15:08:10;99889.94;;;23.91
53412;BMP280;39307;52.870;13.660;2023-07-29T15:13:49;99899.16;;;23.80
53412;BMP280;39307;52.870;13.660;2023-07-29T15:19:36;99887.41;;;23.81
53412;BMP280;39307;52.870;13.660;2023-07-29T15:22:25;99897.88;;;23.77
53412;BMP280;39307;52.870;13.660;2023-07-29T15:44:29;99907.97;;;23.34
53412;BMP280;39307;52.870;13.660;2023-07-29T15:47:07;99910.19;;;23.27
53412;BMP280;39307;52.870;13.660;2023-07-29T15:49:44;99915.06;;;23.20
53412;BMP280;39307;52.870;13.660;2023-07-29T15:52:10;99913.53;;;23.15
53412;BMP280;39307;52.870;13.660;2023-07-29T15:54:45;99927.22;;;23.08
53412;BMP280;39307;52.870;13.660;2023-07-29T15:57:27;99924.03;;;23.06
53412;BMP280;39307;52.870;13.660;2023-07-29T15:59:54;99915.50;;;23.04
53412;BMP280;39307;52.870;13.660;2023-07-29T16:02:20;99931.56;;;22.99
53412;BMP280;39307;52.870;13.660;2023-07-29T16:04:49;99926.81;;;22.91
53412;BMP280;39307;52.870;13.660;2023-07-29T16:07:19;99925.00;;;22.87
53412;BMP280;39307;52.870;13.660;2023-07-29T16:09:55;99913.88;;;22.80
53412;BMP280;39307;52.870;13.660;2023-07-29T16:12:30;99919.75;;;22.72
53412;BMP280;39307;52.870;13.660;2023-07-29T16:15:04;99921.97;;;22.65
53412;BMP280;39307;52.870;13.660;2023-07-29T16:17:34;99923.88;;;22.60
53412;BMP280;39307;52.870;13.660;2023-07-29T16:20:02;99920.47;;;22.50
53412;BMP280;39307;52.870;13.660;2023-07-29T16:22:29;99925.84;;;22.45
53412;BMP280;39307;52.870;13.660;2023-07-29T16:25:04;99921.06;;;22.42
53412;BMP280;39307;52.870;13.660;2023-07-29T16:27:30;99928.28;;;22.41
53412;BMP280;39307;52.870;13.660;2023-07-29T16:29:57;99932.53;;;22.42
53412;BMP280;39307;52.870;13.660;2023-07-29T16:35:09;99932.44;;;22.52
53412;BMP280;39307;52.870;13.660;2023-07-29T16:37:46;99938.78;;;22.61
53412;BMP280;39307;52.870;13.660;2023-07-29T16:40:15;99940.34;;;22.67
53412;BMP280;39307;52.870;13.660;2023-07-29T16:42:41;99930.16;;;22.74